Time;durP1;ratioP1;P1;durP2;ratioP2;P2;SDS_P1;SDS_P2;PMS_P1;PMS_P2;Temp;Humidity;BMP_temperature;BMP_pressure;BME280_temperature;BME280_humidity;BME280_pressure;Samples;Min_cycle;Max_cycle;Signal;HPM_P1;HPM_P2
2021/07/15 00:00:54;;;;;;;17.90;15.03;;;;;;;22.84;61.55;97429.44;128035;1095;62447;-70
2021/07/15 00:03:26;;;;;;;16.90;15.13;;;;;;;22.78;61.66;97425.84;127840;1098;61008;-71
2021/07/15 00:05:52;;;;;;;19.93;15.47;;;;;;;22.81;61.66;97430.45;128222;1098;62466;-71
2021/07/15 00:08:21;;;;;;;19.13;15.33;;;;;;;22.82;61.67;97420.73;128110;1098;62524;-71
2021/07/15 00:10:55;;;;;;;19.80;15.37;;;;;;;22.84;61.54;97420.97;128222;1096;62438;-71
2021/07/15 00:13:21;;;;;;;16.33;14.07;;;;;;;22.78;61.74;97425.84;128157;1097;60988;-70
2021/07/15 00:15:50;;;;;;;20.13;14.87;;;;;;;22.59;61.99;97429.28;128070;1098;62530;-71
2021/07/15 00:18:22;;;;;;;19.00;14.93;;;;;;;22.58;62.30;97433.39;128092;1097;61063;-71
2021/07/15 00:20:48;;;;;;;21.13;15.90;;;;;;;22.37;63.00;97432.23;128111;1096;61347;-71
2021/07/15 00:23:15;;;;;;;19.20;14.93;;;;;;;22.27;63.22;97431.02;127950;1096;62475;-75
2021/07/15 00:25:42;;;;;;;22.70;16.00;;;;;;;22.34;63.31;97427.63;128060;1096;60993;-72
2021/07/15 00:28:08;;;;;;;18.43;16.10;;;;;;;22.25;63.61;97425.86;128261;1096;62454;-71
2021/07/15 00:30:34;;;;;;;19.83;16.77;;;;;;;22.24;63.60;97420.74;127996;1098;62451;-71
2021/07/15 00:33:03;;;;;;;18.87;16.87;;;;;;;22.24;63.85;97429.20;128090;1098;60874;-71
2021/07/15 00:35:30;;;;;;;20.73;16.60;;;;;;;22.23;63.70;97416.39;128236;1095;62272;-72
2021/07/15 00:37:56;;;;;;;20.00;15.93;;;;;;;22.26;63.67;97423.81;128062;1097;62503;-71
2021/07/15 00:40:22;;;;;;;21.63;16.10;;;;;;;22.25;63.64;97419.45;128085;1098;61925;-71
2021/07/15 00:42:48;;;;;;;23.53;16.93;;;;;;;22.27;63.57;97423.31;128055;1096;62451;-71
2021/07/15 00:45:18;;;;;;;18.30;16.27;;;;;;;22.18;63.73;97426.42;128282;1096;62472;-70
2021/07/15 00:47:46;;;;;;;18.23;16.30;;;;;;;22.18;63.73;97420.02;128092;1096;62543;-71
2021/07/15 00:50:12;;;;;;;18.83;16.47;;;;;;;22.06;64.01;97419.28;128080;1096;61768;-73
2021/07/15 00:52:39;;;;;;;23.43;17.23;;;;;;;21.96;64.38;97427.25;128147;1095;61120;-72
2021/07/15 00:55:08;;;;;;;20.43;16.27;;;;;;;22.02;64.23;97425.16;128175;1095;61257;-71
2021/07/15 00:57:34;;;;;;;20.17;15.97;;;;;;;21.99;64.61;97431.84;128253;1095;61233;-70
2021/07/15 01:00:01;;;;;;;20.10;16.63;;;;;;;21.98;64.65;97423.91;128185;1095;62556;-71
2021/07/15 01:02:27;;;;;;;19.70;17.63;;;;;;;21.85;65.13;97424.45;128141;1098;62451;-70
2021/07/15 01:04:53;;;;;;;22.23;17.00;;;;;;;21.94;64.77;97424.17;128043;1095;62493;-71
2021/07/15 01:07:20;;;;;;;20.27;17.20;;;;;;;21.91;64.65;97419.58;128083;1094;61377;-72
2021/07/15 01:09:46;;;;;;;22.20;18.50;;;;;;;21.88;64.88;97426.23;128076;1094;62483;-71
2021/07/15 01:12:29;;;;;;;23.67;17.87;;;;;;;21.90;64.83;97420.87;128036;1095;61111;-72
2021/07/15 01:15:14;;;;;;;18.80;16.80;;;;;;;21.83;65.07;97424.20;128167;1095;62460;-71
2021/07/15 01:18:14;;;;;;;24.07;16.90;;;;;;;21.78;64.93;97422.17;128244;1095;62450;-71
2021/07/15 01:21:24;;;;;;;20.75;18.55;;;;;;;21.73;65.25;97417.33;128138;1095;62467;-69
2021/07/15 01:24:30;;;;;;;22.90;18.80;;;;;;;21.65;65.68;97419.13;128180;1095;61299;-71
2021/07/15 01:27:47;;;;;;;21.10;17.90;;;;;;;21.70;65.28;97416.28;128168;1095;62466;-71
2021/07/15 01:31:09;;;;;;;21.50;17.17;;;;;;;21.75;65.16;97416.81;127694;1098;62511;-70
2021/07/15 01:33:37;;;;;;;24.80;16.90;;;;;;;21.70;65.39;97421.16;128072;1098;60973;-70
2021/07/15 01:36:10;;;;;;;21.03;17.23;;;;;;;21.73;65.32;97425.78;128043;1098;62520;-73
2021/07/15 01:38:43;;;;;;;19.93;17.67;;;;;;;21.68;65.00;97423.72;128058;1095;61750;-70
2021/07/15 01:41:24;;;;;;;19.93;17.67;;;;;;;21.68;65.24;97429.36;128316;1095;60858;-70
2021/07/15 01:44:01;;;;;;;20.20;17.80;;;;;;;21.54;65.65;97430.41;128196;1096;61308;-70
2021/07/15 01:46:27;;;;;;;20.00;17.87;;;;;;;21.40;65.81;97427.37;128162;1095;62492;-71
2021/07/15 01:48:53;;;;;;;21.60;17.57;;;;;;;21.26;66.31;97431.21;128073;1095;62471;-71
2021/07/15 01:51:20;;;;;;;20.07;18.07;;;;;;;21.27;66.26;97429.16;128143;1098;62554;-71
2021/07/15 01:53:48;;;;;;;22.60;18.07;;;;;;;21.22;66.39;97439.13;128162;1096;61195;-72
2021/07/15 01:56:15;;;;;;;21.80;17.47;;;;;;;21.16;66.71;97435.52;128169;1096;61996;-71
2021/07/15 01:58:41;;;;;;;21.37;17.43;;;;;;;21.25;66.79;97438.13;128118;1095;62572;-71
2021/07/15 02:01:09;;;;;;;19.30;16.93;;;;;;;21.30;66.27;97440.16;128240;1095;61372;-71
2021/07/15 02:25:49;;;;;;;20.05;18.00;;;;;;;21.11;66.55;97439.11;128262;1095;61386;-68
2021/07/15 02:28:15;;;;;;;19.75;17.40;;;;;;;21.11;66.51;97428.63;128129;1096;62501;-67
2021/07/15 02:30:45;;;;;;;21.60;17.80;;;;;;;21.04;66.78;97431.19;128083;1096;61180;-68
2021/07/15 02:33:14;;;;;;;22.50;17.87;;;;;;;21.04;66.63;97431.19;128017;1098;62454;-66
2021/07/15 02:35:44;;;;;;;19.83;17.63;;;;;;;21.01;66.70;97427.35;127839;1098;61047;-70
2021/07/15 02:38:11;;;;;;;21.00;17.57;;;;;;;20.85;67.18;97432.97;128115;1098;62074;-67
2021/07/15 02:40:38;;;;;;;20.90;18.80;;;;;;;20.77;67.36;97427.82;128022;1096;62494;-67
2021/07/15 02:43:04;;;;;;;21.83;18.63;;;;;;;20.88;67.21;97438.34;128120;1096;61190;-66
2021/07/15 02:45:30;;;;;;;20.20;18.07;;;;;;;20.83;67.43;97432.70;128154;1098;61196;-66
2021/07/15 02:47:57;;;;;;;20.75;18.48;;;;;;;20.83;67.67;97435.52;128117;1098;62490;-66
2021/07/15 02:50:24;;;;;;;21.07;18.50;;;;;;;20.81;67.86;97433.95;128148;1096;60964;-71
2021/07/15 02:52:52;;;;;;;23.33;19.20;;;;;;;20.95;67.46;97439.87;128172;1096;62633;-70
2021/07/15 02:55:19;;;;;;;23.23;18.30;;;;;;;20.92;67.23;97438.08;128221;1096;62457;-70
2021/07/15 02:58:13;;;;;;;20.97;18.07;;;;;;;20.92;67.33;97433.22;128117;1096;62728;-69
2021/07/15 03:00:54;;;;;;;32.40;18.70;;;;;;;20.95;67.18;97428.61;128069;1097;61930;-69
2021/07/15 03:04:18;;;;;;;21.07;18.87;;;;;;;20.91;67.54;97430.91;128098;1096;62536;-66
2021/07/15 03:06:45;;;;;;;23.20;18.47;;;;;;;20.81;67.72;97428.33;128122;1096;62457;-65
2021/07/15 03:09:22;;;;;;;22.03;17.93;;;;;;;20.87;67.53;97430.41;128209;1096;62598;-67
2021/07/15 03:12:12;;;;;;;23.93;19.03;;;;;;;20.93;67.46;97426.30;128115;1096;62578;-69
2021/07/15 03:14:40;;;;;;;23.47;18.33;;;;;;;20.91;67.56;97425.28;128165;1096;62459;-70
2021/07/15 03:17:07;;;;;;;21.27;18.83;;;;;;;20.86;67.79;97431.69;128164;1095;61751;-66
2021/07/15 03:19:34;;;;;;;21.17;18.57;;;;;;;20.83;67.84;97443.97;128091;1095;62458;-66
2021/07/15 03:22:05;;;;;;;23.23;18.63;;;;;;;20.83;67.95;97446.78;128026;1098;61854;-65
2021/07/15 03:24:33;;;;;;;24.67;18.37;;;;;;;20.72;68.02;97448.28;128125;1095;61848;-67
2021/07/15 03:27:03;;;;;;;22.43;18.93;;;;;;;20.56;68.36;97451.83;128022;1095;60917;-70
2021/07/15 03:29:32;;;;;;;;;;;;;;;20.57;68.18;97458.98;128132;1095;62511;-70
2021/07/15 03:31:59;;;;;;;26.80;18.73;;;;;;;20.60;68.31;97457.97;128127;1095;62501;-66
2021/07/15 03:34:29;;;;;;;22.27;18.20;;;;;;;20.62;68.04;97444.16;128053;1096;62508;-69
2021/07/15 03:36:55;;;;;;;23.90;18.45;;;;;;;20.67;68.16;97446.23;128120;1096;62533;-66
2021/07/15 03:39:21;;;;;;;21.53;19.23;;;;;;;20.75;68.07;97447.27;128161;1096;62580;-70
2021/07/15 03:41:47;;;;;;;21.83;19.33;;;;;;;20.78;68.19;97446.23;127985;1098;61178;-69
2021/07/15 03:44:17;;;;;;;21.60;19.30;;;;;;;20.87;68.25;97447.29;128124;1096;62452;-70
2021/07/15 03:46:43;;;;;;;24.10;19.48;;;;;;;20.90;68.34;97449.08;127989;1098;61294;-67
2021/07/15 03:49:09;;;;;;;24.13;19.47;;;;;;;21.02;68.16;97448.59;127938;1097;62431;-66
2021/07/15 03:51:35;;;;;;;22.60;18.20;;;;;;;20.93;68.36;97436.80;128091;1096;60977;-73
2021/07/15 03:54:02;;;;;;;23.53;19.07;;;;;;;21.05;67.73;97435.54;128187;1097;61329;-66
2021/07/15 03:56:28;;;;;;;27.70;18.60;;;;;;;21.15;67.61;97433.22;128139;1098;61189;-71
2021/07/15 03:58:55;;;;;;;25.53;18.43;;;;;;;21.20;67.26;97436.06;128182;1098;61050;-67
2021/07/15 04:01:26;;;;;;;19.53;17.53;;;;;;;21.20;66.92;97430.42;128164;1098;62511;-70
2021/07/15 04:03:53;;;;;;;20.23;18.03;;;;;;;21.20;66.88;97430.42;128079;1096;62504;-71
2021/07/15 04:06:21;;;;;;;25.03;17.60;;;;;;;21.15;67.11;97433.22;128133;1096;62498;-67
2021/07/15 04:08:47;;;;;;;21.97;18.40;;;;;;;21.13;67.17;97437.31;128063;1095;61009;-69
2021/07/15 04:11:15;;;;;;;25.07;18.23;;;;;;;21.18;66.95;97437.83;127992;1095;62450;-70
2021/07/15 04:13:43;;;;;;;24.37;18.67;;;;;;;21.18;67.08;97435.78;128102;1095;62447;-70
2021/07/15 04:16:32;;;;;;;22.80;19.73;;;;;;;21.18;67.52;97435.78;128004;1095;61423;-68
2021/07/15 04:19:01;;;;;;;22.03;18.67;;;;;;;21.30;67.38;97445.80;128088;1095;62572;-70
2021/07/15 04:21:27;;;;;;;25.50;19.33;;;;;;;21.37;67.59;97448.11;128261;1095;62428;-66
2021/07/15 04:23:55;;;;;;;21.03;18.67;;;;;;;21.40;67.28;97444.27;128078;1098;62547;-70
2021/07/15 04:26:22;;;;;;;24.23;19.63;;;;;;;21.46;67.17;97449.13;128115;1098;62472;-66
2021/07/15 04:28:49;;;;;;;24.67;22.07;;;;;;;21.51;67.05;97437.07;128086;1096;61183;-71
2021/07/15 04:32:14;;;;;;;23.20;19.67;;;;;;;21.57;66.73;97440.67;128059;1098;61785;-71
2021/07/15 04:34:40;;;;;;;30.40;20.50;;;;;;;21.65;66.87;97447.30;128123;1098;62595;-68
2021/07/15 04:37:06;;;;;;;25.23;19.70;;;;;;;21.72;66.88;97446.77;128056;1097;61563;-72
2021/07/15 04:39:34;;;;;;;30.33;19.77;;;;;;;21.78;66.77;97441.91;128103;1097;62487;-72
2021/07/15 04:42:02;;;;;;;31.20;18.47;;;;;;;21.88;66.14;97448.02;128214;1097;62431;-75
2021/07/15 04:44:32;;;;;;;33.90;19.97;;;;;;;21.94;66.37;97455.19;128111;1098;62451;-75
2021/07/15 04:47:00;;;;;;;;;;;;;;;22.03;66.25;97451.30;128142;1098;61789;-79
2021/07/15 04:49:26;;;;;;;27.67;18.80;;;;;;;22.06;66.31;97452.34;128160;1095;62479;-74
2021/07/15 04:51:52;;;;;;;31.50;18.93;;;;;;;22.16;65.81;97445.14;128173;1095;62550;-77
2021/07/15 04:54:19;;;;;;;32.57;18.73;;;;;;;22.25;65.66;97442.02;128169;1095;61039;-78
2021/07/15 04:56:48;;;;;;;39.83;20.17;;;;;;;22.38;65.54;97442.22;128086;1095;62456;-76
2021/07/15 04:59:14;;;;;;;31.85;17.98;;;;;;;22.49;65.52;97439.36;128282;1095;62566;-73
2021/07/15 05:01:41;;;;;;;32.97;19.60;;;;;;;22.69;65.42;97445.92;128193;1095;62508;-77
2021/07/15 05:04:09;;;;;;;27.15;17.55;;;;;;;22.64;65.44;97438.27;128230;1096;61024;-75
2021/07/15 05:06:36;;;;;;;25.73;16.33;;;;;;;22.73;64.75;97435.11;128067;1097;62534;-74
2021/07/15 05:09:03;;;;;;;34.73;16.50;;;;;;;22.84;64.42;97435.84;128050;1096;62427;-73
2021/07/15 05:11:29;;;;;;;24.73;16.23;;;;;;;22.87;64.07;97434.03;128025;1096;61081;-71
2021/07/15 05:13:56;;;;;;;28.20;16.80;;;;;;;22.94;64.17;97433.45;128168;1095;62435;-74
2021/07/15 05:16:24;;;;;;;30.20;17.70;;;;;;;23.08;64.69;97431.56;128145;1095;62504;-74
2021/07/15 05:18:50;;;;;;;33.23;14.63;;;;;;;23.10;63.78;97440.28;128074;1095;62607;-70
2021/07/15 05:21:16;;;;;;;38.83;21.33;;;;;;;23.13;64.68;97439.98;128168;1095;62507;-73
2021/07/15 05:23:43;;;;;;;36.80;18.57;;;;;;;23.14;64.97;97447.16;128198;1095;62431;-76
2021/07/15 05:26:10;;;;;;;22.90;16.50;;;;;;;23.24;63.61;97446.85;128145;1098;61989;-78
2021/07/15 05:28:38;;;;;;;22.07;16.47;;;;;;;23.25;64.21;97451.20;128059;1096;62416;-79
2021/07/15 05:31:04;;;;;;;24.77;15.37;;;;;;;23.30;64.06;97447.56;128007;1098;62448;-78
2021/07/15 05:33:30;;;;;;;22.03;15.13;;;;;;;23.34;63.88;97448.03;128071;1098;62431;-79
2021/07/15 05:35:56;;;;;;;23.47;14.63;;;;;;;23.43;63.22;97453.36;128089;1095;60941;-73
2021/07/15 05:38:23;;;;;;;20.13;14.43;;;;;;;23.49;63.39;97459.72;128139;1095;62610;-75
2021/07/15 05:40:50;;;;;;;20.50;14.47;;;;;;;23.53;63.23;97448.92;128030;1095;61059;-75
2021/07/15 05:43:16;;;;;;;21.37;14.17;;;;;;;23.64;63.25;97448.83;128107;1095;61406;-73
2021/07/15 05:45:42;;;;;;;26.83;14.97;;;;;;;23.77;62.90;97446.13;128198;1097;62472;-70
2021/07/15 05:48:08;;;;;;;24.17;14.43;;;;;;;23.92;62.06;97450.61;128179;1095;61110;-74
2021/07/15 05:50:35;;;;;;;23.80;14.10;;;;;;;23.97;62.02;97447.72;128244;1095;61246;-72
2021/07/15 05:53:01;;;;;;;20.43;13.53;;;;;;;24.05;61.67;97447.88;128263;1097;61176;-72
2021/07/15 05:55:31;;;;;;;25.20;13.57;;;;;;;24.14;61.16;97455.25;128271;1095;61117;-73
2021/07/15 05:57:57;;;;;;;22.40;13.47;;;;;;;24.24;60.36;97453.60;128268;1095;60931;-70
2021/07/15 06:00:24;;;;;;;18.87;12.73;;;;;;;24.31;59.21;97447.36;128304;1095;62442;-67
2021/07/15 06:03:49;;;;;;;26.60;13.07;;;;;;;24.61;60.19;97458.56;127648;1092;62432;-64
2021/07/15 06:06:15;;;;;;;20.87;12.50;;;;;;;24.80;59.76;97458.56;127580;1093;62901;-71
2021/07/15 06:08:41;;;;;;;16.10;12.17;;;;;;;24.94;59.25;97455.23;126695;1095;591211;-65
2021/07/15 06:12:08;;;;;;;15.43;12.23;;;;;;;25.12;58.30;97455.77;127625;1093;61774;-75
2021/07/15 06:14:36;;;;;;;15.77;11.67;;;;;;;25.26;58.10;97454.52;127600;1094;61019;-67
2021/07/15 06:18:02;;;;;;;20.83;12.87;;;;;;;25.52;57.29;97451.02;128464;1092;62527;-71
2021/07/15 06:22:12;;;;;;;16.50;12.50;;;;;;;25.66;57.04;97457.45;128138;1095;134861;-72
